createdAt,value
2023-04-15T00:02:16.263Z,5.10
2023-04-15T00:04:48.011Z,5.20
2023-04-15T00:07:19.893Z,5.20
2023-04-15T00:09:52.952Z,5.40
2023-04-15T00:12:24.805Z,5.40
2023-04-15T00:14:57.081Z,5.40
2023-04-15T00:17:28.884Z,5.40
2023-04-15T00:20:00.477Z,5.40
2023-04-15T00:22:32.678Z,5.50
2023-04-15T00:25:04.182Z,5.50
2023-04-15T00:27:35.813Z,5.50
2023-04-15T00:30:09.416Z,5.50
2023-04-15T00:32:42.324Z,5.50
2023-04-15T00:35:13.985Z,5.50
2023-04-15T00:37:46.341Z,5.50
2023-04-15T00:40:20.607Z,5.50
2023-04-15T00:42:52.993Z,5.50
2023-04-15T00:45:24.917Z,5.50
2023-04-15T00:47:56.833Z,5.40
2023-04-15T00:50:28.431Z,5.40
2023-04-15T00:52:59.921Z,5.40
2023-04-15T00:55:31.534Z,5.30
2023-04-15T00:58:03.215Z,5.40
2023-04-15T01:00:36.182Z,5.30
2023-04-15T01:03:08.056Z,5.30
2023-04-15T01:05:41.497Z,5.30
2023-04-15T01:08:12.965Z,5.40
2023-04-15T01:10:44.718Z,5.40
2023-04-15T01:13:16.459Z,5.30
2023-04-15T01:15:48.583Z,5.30
2023-04-15T01:18:20.101Z,5.20
2023-04-15T01:20:51.702Z,5.30
2023-04-15T01:23:23.920Z,5.30
2023-04-15T01:25:57.319Z,5.20
2023-04-15T01:28:28.796Z,5.20
2023-04-15T01:31:11.965Z,5.20
2023-04-15T01:33:44.635Z,5.10
2023-04-15T01:36:16.078Z,5.10
2023-04-15T01:38:48.441Z,5.00
2023-04-15T01:41:24.413Z,4.80
2023-04-15T01:43:56.590Z,4.70
2023-04-15T01:46:28.413Z,4.60
2023-04-15T01:49:00.195Z,4.50
2023-04-15T01:51:32.092Z,4.40
2023-04-15T01:54:04.192Z,4.40
2023-04-15T01:56:35.676Z,4.50
2023-04-15T01:59:07.664Z,4.60
2023-04-15T02:01:39.850Z,4.70
2023-04-15T02:04:12.928Z,4.80
2023-04-15T02:06:44.431Z,4.90
2023-04-15T02:09:15.848Z,5.10
2023-04-15T02:11:47.977Z,5.20
2023-04-15T02:14:19.397Z,5.30
2023-04-15T02:16:51.469Z,5.30
2023-04-15T02:19:23.042Z,5.40
2023-04-15T02:21:54.594Z,5.40
2023-04-15T02:24:26.182Z,5.50
2023-04-15T02:26:57.761Z,5.50
2023-04-15T02:29:29.416Z,5.50
2023-04-15T02:32:01.215Z,5.50
2023-04-15T02:34:34.359Z,5.60
2023-04-15T02:37:06.896Z,5.60
2023-04-15T02:39:38.776Z,5.60
2023-04-15T02:42:10.456Z,5.60
2023-04-15T02:44:41.846Z,5.70
2023-04-15T02:47:14.532Z,5.70
2023-04-15T02:49:46.117Z,5.70
2023-04-15T02:52:17.643Z,5.70
2023-04-15T02:54:49.122Z,5.70
2023-04-15T02:57:20.496Z,5.70
2023-04-15T02:59:51.987Z,5.70
2023-04-15T03:02:23.602Z,5.70
2023-04-15T03:04:55.916Z,5.70
2023-04-15T03:07:27.305Z,5.70
2023-04-15T03:09:58.805Z,5.70
2023-04-15T03:12:30.802Z,5.70
2023-04-15T03:15:02.274Z,5.70
2023-04-15T03:17:33.765Z,5.70
2023-04-15T03:20:06.423Z,5.70
2023-04-15T03:22:37.892Z,5.70
2023-04-15T03:25:10.614Z,5.60
2023-04-15T03:27:42.440Z,5.60
2023-04-15T03:30:15.062Z,5.50
2023-04-15T03:32:46.781Z,5.60
2023-04-15T03:35:18.297Z,5.60
2023-04-15T03:37:49.710Z,5.60
2023-04-15T03:40:22.626Z,5.60
2023-04-15T03:42:54.149Z,5.60
2023-04-15T03:45:25.631Z,5.50
2023-04-15T03:48:03.581Z,5.50
2023-04-15T03:50:30.785Z,5.50
2023-04-15T03:53:02.410Z,5.50
2023-04-15T03:55:33.899Z,5.50
2023-04-15T03:58:05.479Z,5.50
2023-04-15T04:00:37.185Z,5.60
2023-04-15T04:03:09.067Z,5.50
2023-04-15T04:05:41.943Z,5.50
2023-04-15T04:08:15.318Z,5.50
2023-04-15T04:10:46.833Z,5.50
2023-04-15T04:13:18.539Z,5.50
2023-04-15T04:15:50.120Z,5.40
2023-04-15T04:18:21.816Z,5.40
2023-04-15T04:20:53.534Z,5.40
2023-04-15T04:23:25.085Z,5.30
2023-04-15T04:25:57.069Z,5.30
2023-04-15T04:28:28.484Z,5.30
2023-04-15T04:31:00.145Z,5.30
2023-04-15T04:33:31.997Z,5.40
2023-04-15T04:36:03.480Z,5.40
2023-04-15T04:38:35.306Z,5.40
2023-04-15T04:41:06.879Z,5.40
2023-04-15T04:43:38.365Z,5.40
2023-04-15T04:46:10.478Z,5.50
2023-04-15T04:48:42.181Z,5.40
2023-04-15T04:51:13.825Z,5.40
2023-04-15T04:53:45.243Z,5.50
2023-04-15T04:56:16.711Z,5.50
2023-04-15T04:58:48.366Z,5.50
2023-04-15T05:01:19.956Z,5.50
2023-04-15T05:03:51.690Z,5.60
2023-04-15T05:06:23.390Z,5.60
2023-04-15T05:08:54.842Z,5.60
2023-04-15T05:11:26.305Z,5.70
2023-04-15T05:13:59.607Z,5.70
2023-04-15T05:16:31.035Z,5.80
2023-04-15T05:19:02.713Z,5.80
2023-04-15T05:21:34.612Z,5.90
2023-04-15T05:24:07.346Z,5.90
2023-04-15T05:26:38.733Z,6.00
2023-04-15T05:29:10.207Z,6.00
2023-04-15T05:31:42.249Z,6.00
2023-04-15T05:34:16.104Z,6.10
2023-04-15T05:36:47.732Z,6.20
2023-04-15T05:39:19.273Z,6.20
2023-04-15T05:41:50.660Z,6.20
2023-04-15T05:44:22.217Z,6.20
2023-04-15T05:46:53.685Z,6.20
2023-04-15T05:49:25.475Z,6.20
2023-04-15T05:51:56.962Z,6.30
2023-04-15T05:54:28.519Z,6.40
2023-04-15T05:57:00.904Z,6.40
2023-04-15T05:59:32.866Z,6.50
2023-04-15T06:02:04.277Z,6.60
2023-04-15T06:04:35.814Z,6.60
2023-04-15T06:07:07.494Z,6.70
2023-04-15T06:09:39.070Z,6.80
2023-04-15T06:12:12.380Z,6.90
2023-04-15T06:14:44.151Z,7.00
2023-04-15T06:17:17.258Z,7.00
2023-04-15T06:19:50.322Z,7.10
2023-04-15T06:22:21.849Z,7.20
2023-04-15T06:24:53.349Z,7.30
2023-04-15T06:27:24.723Z,7.30
2023-04-15T06:29:56.188Z,7.40
2023-04-15T06:32:27.760Z,7.50
2023-04-15T06:34:59.663Z,7.50
2023-04-15T06:37:31.466Z,7.50
2023-04-15T06:40:04.598Z,7.60
2023-04-15T06:42:36.747Z,7.60
2023-04-15T06:45:10.476Z,7.60
2023-04-15T06:47:42.229Z,7.70
2023-04-15T06:50:13.847Z,7.80
2023-04-15T06:52:45.322Z,7.90
2023-04-15T06:55:16.867Z,8.00
2023-04-15T06:57:48.254Z,8.10
2023-04-15T07:00:21.316Z,8.30
2023-04-15T07:02:53.359Z,8.70
2023-04-15T07:05:25.453Z,8.70
2023-04-15T07:07:57.176Z,9.20
2023-04-15T07:10:28.874Z,9.90
2023-04-15T07:13:01.099Z,10.40
2023-04-15T07:15:32.496Z,10.60
2023-04-15T07:18:04.137Z,10.60
2023-04-15T07:20:35.780Z,10.70
2023-04-15T07:23:08.446Z,10.40
2023-04-15T07:25:39.895Z,10.20
2023-04-15T07:28:11.632Z,10.00
2023-04-15T07:30:43.259Z,9.80
2023-04-15T07:33:14.763Z,9.70
2023-04-15T07:35:46.841Z,9.40
2023-04-15T07:38:18.438Z,9.20
2023-04-15T07:40:50.912Z,9.00
2023-04-15T07:43:22.649Z,9.10
2023-04-15T07:45:54.210Z,9.30
2023-04-15T07:48:25.952Z,9.50
2023-04-15T07:50:57.641Z,9.80
2023-04-15T07:53:32.988Z,10.00
2023-04-15T07:56:04.525Z,10.30
2023-04-15T07:58:36.118Z,10.10
2023-04-15T08:01:07.767Z,10.00
2023-04-15T08:03:39.524Z,9.70
2023-04-15T08:06:11.078Z,9.70
2023-04-15T08:08:43.135Z,9.60
2023-04-15T08:11:14.867Z,9.40
2023-04-15T08:13:47.212Z,9.40
2023-04-15T08:16:24.469Z,9.30
2023-04-15T08:18:58.701Z,9.30
2023-04-15T08:21:31.134Z,9.50
2023-04-15T08:24:03.205Z,9.50
2023-04-15T08:26:37.097Z,9.50
2023-04-15T08:29:09.158Z,9.50
2023-04-15T08:31:40.614Z,9.50
2023-04-15T08:34:15.152Z,9.60
2023-04-15T08:36:46.853Z,9.60
2023-04-15T08:39:18.948Z,9.80
2023-04-15T08:41:52.990Z,9.90
2023-04-15T08:44:27.401Z,10.30
2023-04-15T08:47:01.386Z,10.50
2023-04-15T08:49:36.067Z,10.70
2023-04-15T08:52:09.302Z,11.00
2023-04-15T08:54:40.976Z,11.20
2023-04-15T08:57:13.503Z,11.40
2023-04-15T08:59:46.203Z,11.50
2023-04-15T09:02:17.926Z,11.70
2023-04-15T09:04:49.485Z,11.80
2023-04-15T09:07:21.476Z,11.90
2023-04-15T09:09:53.525Z,11.70
2023-04-15T09:12:24.948Z,11.90
2023-04-15T09:14:56.520Z,12.10
2023-04-15T09:17:28.192Z,12.50
2023-04-15T09:20:13.087Z,12.80
2023-04-15T09:22:46.754Z,12.80
2023-04-15T09:25:29.452Z,12.80
2023-04-15T09:28:02.901Z,13.00
2023-04-15T09:30:34.641Z,13.10
2023-04-15T09:33:08.340Z,13.40
2023-04-15T09:35:40.832Z,13.70
2023-04-15T09:38:12.788Z,13.70
2023-04-15T09:40:44.444Z,13.80
2023-04-15T09:43:17.487Z,14.00
2023-04-15T09:45:53.337Z,14.10
2023-04-15T09:48:27.150Z,14.10
2023-04-15T09:51:01.509Z,13.90
2023-04-15T09:53:35.361Z,13.90
2023-04-15T09:56:08.881Z,13.90
2023-04-15T09:58:42.050Z,14.10
2023-04-15T10:01:13.440Z,14.10
2023-04-15T10:03:45.716Z,14.10
2023-04-15T10:06:17.545Z,14.10
2023-04-15T10:08:50.316Z,14.10
2023-04-15T10:11:23.886Z,14.10
2023-04-15T10:13:55.595Z,14.00
2023-04-15T10:16:29.209Z,13.80
2023-04-15T10:19:04.399Z,13.80
2023-04-15T10:21:37.010Z,13.90
2023-04-15T10:24:09.681Z,14.10
2023-04-15T10:26:42.828Z,14.00
2023-04-15T10:29:15.100Z,13.90
2023-04-15T10:31:55.918Z,13.80
2023-04-15T10:34:28.179Z,13.50
2023-04-15T10:37:03.822Z,13.30
2023-04-15T10:39:43.717Z,13.30
2023-04-15T10:42:35.830Z,13.00
2023-04-15T10:45:11.928Z,12.90
2023-04-15T10:47:45.189Z,13.00
2023-04-15T10:50:16.952Z,13.00
2023-04-15T10:52:49.845Z,12.90
2023-04-15T10:55:26.696Z,12.70
2023-04-15T10:58:01.400Z,12.60
2023-04-15T11:00:35.667Z,12.30
2023-04-15T11:03:09.877Z,12.10
2023-04-15T11:05:55.986Z,11.80
2023-04-15T11:08:57.039Z,11.70
2023-04-15T11:12:05.563Z,11.80
2023-04-15T11:14:38.717Z,11.80
2023-04-15T11:17:11.148Z,11.80
2023-04-15T11:19:43.514Z,11.70
2023-04-15T11:22:15.105Z,11.60
2023-04-15T11:24:52.787Z,11.60
2023-04-15T11:27:24.939Z,11.60
2023-04-15T11:29:56.955Z,11.70
2023-04-15T11:32:28.391Z,12.00
2023-04-15T11:34:59.947Z,12.40
2023-04-15T11:37:33.584Z,12.70
2023-04-15T11:40:24.462Z,13.00
2023-04-15T11:43:07.738Z,13.00
2023-04-15T11:45:41.209Z,13.10
2023-04-15T11:48:14.453Z,13.10
2023-04-15T11:50:46.064Z,13.00
2023-04-15T11:53:17.473Z,13.10
2023-04-15T11:55:51.067Z,13.20
2023-04-15T11:58:24.935Z,13.30
2023-04-15T12:00:58.816Z,13.40
2023-04-15T12:03:32.957Z,13.40
2023-04-15T12:09:13.891Z,13.50
2023-04-15T12:11:48.430Z,13.40
2023-04-15T12:14:24.295Z,13.50
2023-04-15T12:16:58.810Z,13.60
2023-04-15T12:19:32.568Z,13.60
2023-04-15T12:22:05.466Z,13.60
2023-04-15T12:24:38.175Z,13.30
2023-04-15T12:27:10.887Z,13.20
2023-04-15T12:29:43.966Z,13.10
2023-04-15T12:32:17.240Z,13.00
2023-04-15T12:34:51.463Z,12.90
2023-04-15T12:37:23.023Z,12.70
2023-04-15T12:39:54.906Z,12.30
2023-04-15T12:42:26.354Z,12.00
2023-04-15T12:44:58.073Z,11.80
2023-04-15T12:47:29.545Z,11.60
2023-04-15T12:50:01.353Z,11.60
2023-04-15T12:52:32.740Z,11.60
2023-04-15T12:55:04.252Z,11.50
2023-04-15T12:57:35.992Z,11.50
2023-04-15T13:00:10.170Z,11.50
2023-04-15T13:02:41.936Z,11.60
2023-04-15T13:05:14.653Z,11.60
2023-04-15T13:07:46.377Z,11.70
2023-04-15T13:10:18.100Z,11.70
2023-04-15T13:12:53.623Z,11.70
2023-04-15T13:15:26.023Z,11.70
2023-04-15T13:17:57.448Z,11.60
2023-04-15T13:20:29.057Z,11.40
2023-04-15T13:23:00.588Z,11.30
2023-04-15T13:25:32.745Z,11.20
2023-04-15T13:28:04.335Z,11.10
2023-04-15T13:30:36.043Z,11.00
2023-04-15T13:33:07.927Z,11.00
2023-04-15T13:35:40.708Z,11.00
2023-04-15T13:38:12.165Z,10.90
2023-04-15T13:40:45.023Z,10.90
2023-04-15T13:43:17.416Z,10.90
2023-04-15T13:45:49.563Z,10.90
2023-04-15T13:48:20.996Z,10.90
2023-04-15T13:50:52.636Z,10.80
2023-04-15T13:53:33.925Z,10.80
2023-04-15T13:55:57.240Z,10.70
2023-04-15T13:58:28.652Z,10.70
2023-04-15T14:01:00.892Z,10.90
2023-04-15T14:03:33.740Z,11.00
2023-04-15T14:06:06.237Z,11.20
2023-04-15T14:08:37.693Z,11.30
2023-04-15T14:11:09.617Z,11.20
2023-04-15T14:13:41.150Z,11.30
2023-04-15T14:16:12.689Z,11.40
2023-04-15T14:18:46.019Z,11.50
2023-04-15T14:21:17.487Z,11.40
2023-04-15T14:23:49.083Z,11.50
2023-04-15T14:26:20.976Z,11.40
2023-04-15T14:28:53.129Z,11.30
2023-04-15T14:31:24.742Z,11.20
2023-04-15T14:33:56.345Z,11.10
2023-04-15T14:36:28.555Z,11.00
2023-04-15T14:39:00.152Z,10.80
2023-04-15T14:41:32.142Z,10.80
2023-04-15T14:44:03.757Z,10.70
2023-04-15T14:46:35.231Z,10.80
2023-04-15T14:49:06.951Z,10.70
2023-04-15T14:51:40.736Z,10.60
2023-04-15T14:54:11.638Z,10.60
2023-04-15T14:56:43.028Z,10.60
2023-04-15T14:59:14.512Z,10.70
2023-04-15T15:01:46.650Z,10.70
2023-04-15T15:04:18.246Z,10.70
2023-04-15T15:06:49.752Z,10.70
2023-04-15T15:09:22.856Z,10.60
2023-04-15T15:11:54.714Z,10.50
2023-04-15T15:14:26.372Z,10.30
2023-04-15T15:16:58.183Z,10.10
2023-04-15T15:19:29.690Z,9.90
2023-04-15T15:22:01.077Z,9.80
2023-04-15T15:24:32.663Z,9.80
2023-04-15T15:27:04.709Z,9.70
2023-04-15T15:29:36.750Z,9.70
2023-04-15T15:32:08.281Z,9.70
2023-04-15T15:34:39.986Z,9.60
2023-04-15T15:37:11.464Z,9.60
2023-04-15T15:39:43.063Z,9.60
2023-04-15T15:42:14.645Z,9.70
2023-04-15T15:44:46.285Z,9.70
2023-04-15T15:47:17.768Z,9.90
2023-04-15T15:49:52.730Z,9.90
2023-04-15T15:52:24.140Z,10.10
2023-04-15T15:54:55.688Z,10.10
2023-04-15T15:57:27.107Z,10.10
2023-04-15T16:00:10.183Z,10.00
2023-04-15T16:03:02.056Z,10.00
2023-04-15T16:05:06.564Z,9.90
2023-04-15T16:07:38.078Z,9.80
2023-04-15T16:10:12.702Z,9.80
2023-04-15T16:12:44.187Z,9.90
2023-04-15T16:15:15.817Z,9.90
2023-04-15T16:17:48.406Z,9.80
2023-04-15T16:20:20.454Z,9.90
2023-04-15T16:22:52.178Z,9.90
2023-04-15T16:25:24.088Z,9.90
2023-04-15T16:28:05.596Z,9.80
2023-04-15T16:30:28.868Z,9.70
2023-04-15T16:33:00.637Z,9.60
2023-04-15T16:35:34.074Z,9.60
2023-04-15T16:38:05.331Z,9.40
2023-04-15T16:40:37.894Z,9.20
2023-04-15T16:43:11.478Z,9.00
2023-04-15T16:45:44.429Z,8.80
2023-04-15T16:48:16.036Z,8.70
2023-04-15T16:50:47.524Z,8.50
2023-04-15T16:53:19.010Z,8.40
2023-04-15T16:55:50.454Z,8.30
2023-04-15T16:58:22.207Z,8.30
2023-04-15T17:00:54.034Z,8.30
2023-04-15T17:03:26.633Z,8.30
2023-04-15T17:05:58.133Z,8.40
2023-04-15T17:08:30.196Z,8.40
2023-04-15T17:11:02.358Z,8.40
2023-04-15T17:13:53.570Z,8.40
2023-04-15T17:16:23.839Z,8.40
2023-04-15T17:18:55.432Z,8.30
2023-04-15T17:21:28.022Z,8.30
2023-04-15T17:23:59.426Z,8.30
2023-04-15T17:26:30.989Z,8.30
2023-04-15T17:29:02.642Z,8.40
2023-04-15T17:31:34.465Z,8.40
2023-04-15T17:34:09.519Z,8.40
2023-04-15T17:36:39.138Z,8.40
2023-04-15T17:39:11.523Z,8.40
2023-04-15T17:41:43.319Z,8.40
2023-04-15T17:44:14.805Z,8.40
2023-04-15T17:46:46.403Z,8.30
2023-04-15T17:49:17.841Z,8.30
2023-04-15T17:51:49.339Z,8.40
2023-04-15T17:54:20.893Z,8.40
2023-04-15T17:56:52.420Z,8.30
2023-04-15T17:59:23.934Z,8.30
2023-04-15T18:01:55.603Z,8.20
2023-04-15T18:04:27.406Z,8.10
2023-04-15T18:06:59.063Z,8.00
2023-04-15T18:09:30.655Z,7.90
2023-04-15T18:12:02.377Z,7.80
2023-04-15T18:14:35.027Z,7.80
2023-04-15T18:17:09.933Z,7.70
2023-04-15T18:19:41.838Z,7.70
2023-04-15T18:22:13.298Z,7.70
2023-04-15T18:24:44.727Z,7.70
2023-04-15T18:27:16.237Z,7.60
2023-04-15T18:29:47.670Z,7.60
2023-04-15T18:32:19.255Z,7.70
2023-04-15T18:34:50.730Z,7.60
2023-04-15T18:37:22.139Z,7.60
2023-04-15T18:39:54.711Z,7.70
2023-04-15T18:42:26.834Z,7.70
2023-04-15T18:44:58.435Z,7.70
2023-04-15T18:47:30.022Z,7.70
2023-04-15T18:50:01.607Z,7.70
2023-04-15T18:52:33.931Z,7.70
2023-04-15T18:55:06.434Z,7.70
2023-04-15T18:57:40.148Z,7.70
2023-04-15T19:00:15.912Z,7.70
2023-04-15T19:02:47.571Z,7.70
2023-04-15T19:05:19.285Z,7.70
2023-04-15T19:07:51.588Z,7.70
2023-04-15T19:10:23.486Z,7.70
2023-04-15T19:12:55.005Z,7.70
2023-04-15T19:15:26.514Z,7.70
2023-04-15T19:17:57.978Z,7.70
2023-04-15T19:20:29.532Z,7.70
2023-04-15T19:23:00.991Z,7.70
2023-04-15T19:25:33.682Z,7.70
2023-04-15T19:28:05.221Z,7.70
2023-04-15T19:30:37.008Z,7.70
2023-04-15T19:33:08.570Z,7.70
2023-04-15T19:35:42.039Z,7.60
2023-04-15T19:38:13.488Z,7.60
2023-04-15T19:40:45.316Z,7.60
2023-04-15T19:43:16.683Z,7.60
2023-04-15T19:45:50.072Z,7.50
2023-04-15T19:48:21.451Z,7.50
2023-04-15T19:50:52.993Z,7.50
2023-04-15T19:53:25.458Z,7.50
2023-04-15T19:55:56.958Z,7.50
2023-04-15T19:58:28.355Z,7.50
2023-04-15T20:01:01.343Z,7.50
2023-04-15T20:03:32.970Z,7.50
2023-04-15T20:06:04.614Z,7.50
2023-04-15T20:08:36.166Z,7.50
2023-04-15T20:11:07.702Z,7.50
2023-04-15T20:13:39.384Z,7.50
2023-04-15T20:16:12.473Z,7.50
2023-04-15T20:18:43.942Z,7.40
2023-04-15T20:21:15.710Z,7.40
2023-04-15T20:23:47.114Z,7.40
2023-04-15T20:26:19.572Z,7.50
2023-04-15T20:28:51.015Z,7.50
2023-04-15T20:31:23.205Z,7.60
2023-04-15T20:33:54.830Z,7.50
2023-04-15T20:36:27.101Z,7.50
2023-04-15T20:38:59.255Z,7.50
2023-04-15T20:41:31.187Z,7.40
2023-04-15T20:44:03.360Z,7.40
2023-04-15T20:46:35.014Z,7.40
2023-04-15T20:49:06.727Z,7.40
2023-04-15T20:51:38.673Z,7.40
2023-04-15T20:54:10.168Z,7.40
2023-04-15T20:56:41.575Z,7.40
2023-04-15T20:59:15.539Z,7.40
2023-04-15T21:01:50.666Z,7.30
2023-04-15T21:04:37.785Z,7.40
2023-04-15T21:07:10.281Z,7.40
2023-04-15T21:09:43.036Z,7.40
2023-04-15T21:12:20.065Z,7.40
2023-04-15T21:14:47.586Z,7.30
2023-04-15T21:17:19.054Z,7.30
2023-04-15T21:19:50.829Z,7.20
2023-04-15T21:22:22.521Z,7.20
2023-04-15T21:24:54.018Z,7.20
2023-04-15T21:27:26.309Z,7.20
2023-04-15T21:29:57.924Z,7.10
2023-04-15T21:32:30.607Z,7.10
2023-04-15T21:35:02.323Z,7.10
2023-04-15T21:37:33.998Z,7.10
2023-04-15T21:40:06.728Z,7.10
2023-04-15T21:42:38.144Z,7.00
2023-04-15T21:45:11.130Z,7.00
2023-04-15T21:48:00.873Z,7.00
2023-04-15T21:50:16.091Z,7.00
2023-04-15T21:52:47.754Z,6.90
2023-04-15T21:55:19.973Z,6.90
2023-04-15T21:57:51.544Z,6.90
2023-04-15T22:00:24.334Z,6.90
2023-04-15T22:02:56.085Z,6.90
2023-04-15T22:05:28.129Z,6.90
2023-04-15T22:08:00.945Z,6.90
2023-04-15T22:10:32.552Z,6.90
2023-04-15T22:13:05.590Z,6.80
2023-04-15T22:15:37.853Z,6.80
2023-04-15T22:18:09.307Z,6.80
2023-04-15T22:20:41.040Z,6.80
2023-04-15T22:23:12.448Z,6.80
2023-04-15T22:25:44.180Z,6.70
2023-04-15T22:28:15.931Z,6.70
2023-04-15T22:30:47.557Z,6.70
2023-04-15T22:33:18.967Z,6.70
2023-04-15T22:35:50.547Z,6.70
2023-04-15T22:38:22.374Z,6.70
2023-04-15T22:40:54.576Z,6.80
2023-04-15T22:43:27.715Z,6.80
2023-04-15T22:45:59.469Z,6.80
2023-04-15T22:48:31.332Z,6.80
2023-04-15T22:51:03.715Z,6.80
2023-04-15T22:53:35.302Z,6.80
2023-04-15T22:56:07.684Z,6.90
2023-04-15T22:58:39.146Z,6.80
2023-04-15T23:01:11.063Z,6.80
2023-04-15T23:03:56.898Z,6.80
2023-04-15T23:06:15.700Z,6.90
2023-04-15T23:08:47.951Z,6.90
2023-04-15T23:11:19.417Z,6.90
2023-04-15T23:13:51.216Z,6.90
2023-04-15T23:16:30.505Z,6.90
2023-04-15T23:19:02.056Z,6.90
2023-04-15T23:21:33.441Z,6.80
2023-04-15T23:24:05.142Z,6.80
2023-04-15T23:26:36.628Z,6.80
2023-04-15T23:29:10.006Z,6.70
2023-04-15T23:31:43.736Z,6.80
2023-04-15T23:34:15.683Z,6.80
2023-04-15T23:36:47.490Z,6.80
2023-04-15T23:39:18.961Z,6.80
2023-04-15T23:41:50.813Z,6.70
2023-04-15T23:44:22.292Z,6.70
2023-04-15T23:46:53.726Z,6.70
2023-04-15T23:49:25.539Z,6.60
2023-04-15T23:51:57.562Z,6.50
2023-04-15T23:54:29.027Z,6.40
2023-04-15T23:57:00.477Z,6.40
2023-04-15T23:59:31.987Z,6.40
